Time;durP1;ratioP1;P1;durP2;ratioP2;P2;SDS_P1;SDS_P2;PMS_P1;PMS_P2;Temp;Humidity;BMP_temperature;BMP_pressure;BME280_temperature;BME280_humidity;BME280_pressure;Samples;Min_cycle;Max_cycle;Signal;HPM_P1;HPM_P2
2023/08/12 00:01:39;;;;;;;;;;;;;;;22.83;61.82;101491.22;4149760;28;19979;-60
2023/08/12 00:03:40;;;;;;;;;;;;;;;22.75;61.77;101470.34;4150119;28;20027;-59
2023/08/12 00:05:42;;;;;;;;;;;;;;;22.80;61.75;101485.09;4149878;28;19925;-60
2023/08/12 00:07:44;;;;;;;;;;;;;;;22.81;62.16;101483.28;4149747;28;19925;-60
2023/08/12 00:09:45;;;;;;;;;;;;;;;22.80;61.80;101481.56;4148953;28;19943;-58
2023/08/12 00:11:47;;;;;;;;;;;;;;;22.80;61.96;101476.22;4149275;28;19925;-60
2023/08/12 00:13:49;;;;;;;;;;;;;;;22.79;61.75;101472.66;4149555;28;19932;-59
2023/08/12 00:15:51;;;;;;;;;;;;;;;22.78;61.90;101468.28;4149283;28;19926;-60
2023/08/12 00:17:53;;;;;;;;;;;;;;;22.78;62.09;101462.06;4149536;28;19926;-59
2023/08/12 00:19:54;;;;;;;;;;;;;;;22.77;61.92;101461.22;4149017;28;19948;-60
2023/08/12 00:21:56;;;;;;;;;;;;;;;22.78;62.12;101460.25;4149432;28;19936;-60
2023/08/12 00:23:57;;;;;;;;;;;;;;;22.77;61.90;101454.97;4149855;28;19933;-59
2023/08/12 00:25:59;;;;;;;;;;;;;;;22.76;62.26;101459.50;4149396;28;19926;-59
2023/08/12 00:28:01;;;;;;;;;;;;;;;22.77;61.90;101457.66;4149274;28;20405;-60
2023/08/12 00:30:04;;;;;;;;;;;;;;;22.75;62.33;101446.22;4148359;28;19941;-60
2023/08/12 00:32:05;;;;;;;;;;;;;;;22.75;61.94;101452.41;4149247;28;19969;-59
2023/08/12 00:34:07;;;;;;;;;;;;;;;22.74;62.15;101447.19;4149059;28;19926;-59
2023/08/12 00:36:08;;;;;;;;;;;;;;;22.74;61.94;101442.66;4149080;28;19925;-59
2023/08/12 00:38:10;;;;;;;;;;;;;;;22.74;62.17;101439.13;4149157;28;19960;-60
2023/08/12 00:40:13;;;;;;;;;;;;;;;22.74;61.98;101436.44;4148381;28;19933;-60
2023/08/12 00:42:14;;;;;;;;;;;;;;;22.73;61.95;101432.06;4148053;28;19948;-59
2023/08/12 00:44:16;;;;;;;;;;;;;;;22.73;61.98;101429.38;4148826;28;20028;-59
2023/08/12 00:46:17;;;;;;;;;;;;;;;22.72;61.95;101431.19;4148951;28;19926;-63
2023/08/12 00:48:19;;;;;;;;;;;;;;;22.72;61.85;101436.53;4149101;28;20015;-58
2023/08/12 00:50:21;;;;;;;;;;;;;;;22.72;61.96;101431.19;4148356;28;20334;-60
2023/08/12 00:52:22;;;;;;;;;;;;;;;22.73;62.23;101440.09;4149036;28;20028;-59
2023/08/12 00:54:25;;;;;;;;;;;;;;;22.72;62.01;101443.75;4148807;28;20367;-59
2023/08/12 00:56:27;;;;;;;;;;;;;;;22.71;61.91;101432.19;4148853;28;19980;-60
2023/08/12 00:58:31;;;;;;;;;;;;;;;22.71;61.96;101439.34;4148660;28;19932;-62
2023/08/12 01:00:33;;;;;;;;;;;;;;;22.71;62.08;101426.81;4148245;28;19932;-60
2023/08/12 01:02:35;;;;;;;;;;;;;;;22.71;62.32;101434.00;4148882;28;20406;-60
2023/08/12 01:04:37;;;;;;;;;;;;;;;22.69;62.17;101426.06;4149002;28;19937;-59
2023/08/12 01:06:38;;;;;;;;;;;;;;;22.69;62.28;101426.06;4148787;28;19932;-60
2023/08/12 01:08:40;;;;;;;;;;;;;;;22.69;62.29;101426.06;4148815;28;19952;-60
2023/08/12 01:10:46;;;;;;;;;;;;;;;22.68;62.38;101432.41;4147313;28;19925;-59
2023/08/12 01:12:59;;;;;;;;;;;;;;;22.69;62.32;101435.94;4148174;28;19926;-59
2023/08/12 01:15:21;;;;;;;;;;;;;;;22.69;61.94;101435.94;4148393;28;19936;-59
2023/08/12 01:17:23;;;;;;;;;;;;;;;22.67;62.04;101438.72;4148749;28;19929;-60
2023/08/12 01:19:24;;;;;;;;;;;;;;;22.68;61.91;101423.50;4148168;28;20017;-59
2023/08/12 01:21:29;;;;;;;;;;;;;;;22.67;61.89;101424.47;4148358;28;19971;-59
2023/08/12 01:23:31;;;;;;;;;;;;;;;22.65;62.24;101414.72;4148499;28;20371;-60
2023/08/12 01:25:33;;;;;;;;;;;;;;;22.66;61.97;101415.56;4148454;28;20307;-60
2023/08/12 01:27:36;;;;;;;;;;;;;;;22.66;62.14;101412.88;4147971;28;19926;-59
2023/08/12 01:29:40;;;;;;;;;;;;;;;22.65;62.04;101420.09;4147636;28;19984;-60
2023/08/12 01:31:51;;;;;;;;;;;;;;;22.64;61.96;101418.38;4148403;28;20221;-59
2023/08/12 01:33:59;;;;;;;;;;;;;;;22.65;61.98;101414.72;4148200;28;19931;-60
2023/08/12 01:36:07;;;;;;;;;;;;;;;22.64;62.10;101418.38;4148157;28;19925;-59
2023/08/12 01:38:09;;;;;;;;;;;;;;;22.64;62.19;101421.06;4148465;28;20387;-60
2023/08/12 01:40:11;;;;;;;;;;;;;;;22.63;62.22;101422.00;4147623;28;20020;-60
2023/08/12 01:42:14;;;;;;;;;;;;;;;22.63;62.05;101416.66;4147913;28;19926;-60
2023/08/12 01:44:16;;;;;;;;;;;;;;;22.62;62.33;101409.56;4148284;28;20008;-60
2023/08/12 01:46:18;;;;;;;;;;;;;;;22.62;62.19;101417.63;4148475;28;20306;-60
2023/08/12 01:48:22;;;;;;;;;;;;;;;22.62;62.17;101414.09;4148210;28;19925;-59
2023/08/12 01:50:25;;;;;;;;;;;;;;;22.61;62.14;101407.03;4147513;28;19975;-59
2023/08/12 01:52:27;;;;;;;;;;;;;;;22.61;62.28;101410.56;4148407;28;20409;-60
2023/08/12 01:54:33;;;;;;;;;;;;;;;22.60;62.27;101406.19;4147924;28;19930;-60
2023/08/12 01:56:34;;;;;;;;;;;;;;;22.60;62.66;101400.81;4147711;28;20402;-60
2023/08/12 01:58:36;;;;;;;;;;;;;;;22.59;62.55;101401.78;4148261;28;20020;-59
2023/08/12 02:00:38;;;;;;;;;;;;;;;22.60;62.22;101391.91;4147428;28;19948;-60
2023/08/12 02:02:39;;;;;;;;;;;;;;;22.59;62.36;101395.53;4148128;28;19932;-60
2023/08/12 02:04:42;;;;;;;;;;;;;;;22.58;62.41;101389.34;4148157;28;19925;-59
2023/08/12 02:06:44;;;;;;;;;;;;;;;22.58;62.49;101389.34;4148047;28;19932;-60
2023/08/12 02:08:46;;;;;;;;;;;;;;;22.59;62.38;101382.13;4148160;28;19931;-60
2023/08/12 02:10:47;;;;;;;;;;;;;;;22.58;62.41;101383.13;4147004;28;19925;-60
2023/08/12 02:12:49;;;;;;;;;;;;;;;22.57;62.51;101384.94;4148088;28;19976;-59
2023/08/12 02:14:50;;;;;;;;;;;;;;;22.58;62.42;101388.50;4147769;28;20301;-59
2023/08/12 02:16:52;;;;;;;;;;;;;;;22.58;62.13;101386.66;4148153;28;19971;-60
2023/08/12 02:18:53;;;;;;;;;;;;;;;22.58;62.43;101380.47;4147749;28;19926;-59
2023/08/12 02:20:55;;;;;;;;;;;;;;;22.57;62.57;101390.31;4147104;28;20176;-59
2023/08/12 02:22:57;;;;;;;;;;;;;;;22.56;62.29;101391.28;4150656;28;20298;-59
2023/08/12 02:24:58;;;;;;;;;;;;;;;22.57;62.18;101394.84;4150954;28;20417;-59
2023/08/12 02:27:00;;;;;;;;;;;;;;;22.57;62.28;101401.03;4151213;28;20284;-58
2023/08/12 02:29:01;;;;;;;;;;;;;;;22.57;62.24;101394.84;4151157;28;19932;-59
2023/08/12 02:31:03;;;;;;;;;;;;;;;22.56;62.49;101396.63;4150317;28;19933;-60
2023/08/12 02:33:05;;;;;;;;;;;;;;;22.56;62.58;101391.28;4151266;28;19964;-60
2023/08/12 02:35:06;;;;;;;;;;;;;;;22.55;62.30;101392.25;4151023;28;19932;-60
2023/08/12 02:37:08;;;;;;;;;;;;;;;22.55;62.23;101389.56;4151166;28;20418;-60
2023/08/12 02:39:10;;;;;;;;;;;;;;;22.56;62.38;101395.78;4150714;28;19971;-60
2023/08/12 02:41:12;;;;;;;;;;;;;;;22.55;62.24;101386.03;4150409;28;19925;-60
2023/08/12 02:43:13;;;;;;;;;;;;;;;22.54;62.61;101385.19;4151048;28;19925;-60
2023/08/12 02:45:15;;;;;;;;;;;;;;;22.54;62.40;101384.31;4150783;28;19925;-60
2023/08/12 02:47:16;;;;;;;;;;;;;;;22.53;62.44;101388.84;4150933;28;20450;-60
2023/08/12 02:49:18;;;;;;;;;;;;;;;22.53;62.37;101388.84;4150976;28;19933;-60
2023/08/12 02:51:19;;;;;;;;;;;;;;;22.54;62.51;101387.00;4150234;28;19932;-60
2023/08/12 02:53:21;;;;;;;;;;;;;;;22.53;62.52;101391.53;4150971;28;19961;-60
2023/08/12 02:55:22;;;;;;;;;;;;;;;22.53;62.46;101396.00;4150521;28;19968;-60
2023/08/12 02:57:24;;;;;;;;;;;;;;;22.52;62.50;101387.13;4150809;28;19925;-59
2023/08/12 02:59:25;;;;;;;;;;;;;;;22.52;62.40;101389.81;4150631;28;19933;-60
2023/08/12 03:01:27;;;;;;;;;;;;;;;22.52;62.83;101381.78;4150325;28;20264;-60
2023/08/12 03:03:29;;;;;;;;;;;;;;;22.51;62.60;101379.22;4150711;28;19929;-60
2023/08/12 03:05:32;;;;;;;;;;;;;;;22.51;62.64;101377.38;4150482;28;19972;-60
2023/08/12 03:07:34;;;;;;;;;;;;;;;22.49;62.46;101372.13;4150765;28;19926;-60
2023/08/12 03:09:36;;;;;;;;;;;;;;;22.50;62.58;101370.31;4149956;28;20280;-59
2023/08/12 03:11:37;;;;;;;;;;;;;;;22.49;62.50;101369.47;4149590;28;20024;-60
2023/08/12 03:13:39;;;;;;;;;;;;;;;22.48;62.55;101370.44;4149478;28;19930;-60
2023/08/12 03:15:41;;;;;;;;;;;;;;;22.48;62.82;101370.44;4149377;28;19987;-60
2023/08/12 03:17:43;;;;;;;;;;;;;;;22.48;62.61;101369.59;4149519;28;20303;-60
2023/08/12 03:19:45;;;;;;;;;;;;;;;22.48;62.53;101370.44;4148867;28;19965;-60
2023/08/12 03:21:46;;;;;;;;;;;;;;;22.48;62.76;101365.06;4149342;28;20016;-59
2023/08/12 03:23:48;;;;;;;;;;;;;;;22.48;62.54;101367.75;4148910;28;19933;-59
2023/08/12 03:25:49;;;;;;;;;;;;;;;22.47;62.90;101366.03;4149256;28;20278;-60
2023/08/12 03:27:51;;;;;;;;;;;;;;;22.46;62.51;101361.63;4149406;28;20387;-59
2023/08/12 03:29:52;;;;;;;;;;;;;;;22.46;62.53;101358.13;4148850;28;19956;-59
2023/08/12 03:31:54;;;;;;;;;;;;;;;22.47;62.58;101367.88;4149162;28;19932;-60
2023/08/12 03:33:55;;;;;;;;;;;;;;;22.46;62.57;101367.00;4148981;28;19929;-60
2023/08/12 03:35:57;;;;;;;;;;;;;;;22.46;62.63;101366.16;4149196;28;19936;-60
2023/08/12 03:37:59;;;;;;;;;;;;;;;22.45;62.67;101353.72;4148991;28;20280;-60
2023/08/12 03:40:00;;;;;;;;;;;;;;;22.45;62.52;101359.09;4148628;28;19971;-59
2023/08/12 03:42:02;;;;;;;;;;;;;;;22.43;62.91;101358.34;4149328;28;19926;-60
2023/08/12 03:44:04;;;;;;;;;;;;;;;22.43;62.94;101361.88;4149324;28;19925;-59
2023/08/12 03:46:05;;;;;;;;;;;;;;;22.44;62.84;101360.91;4149068;28;19925;-59
2023/08/12 03:48:07;;;;;;;;;;;;;;;22.44;63.03;101360.91;4149119;28;19968;-60
2023/08/12 03:50:09;;;;;;;;;;;;;;;22.42;62.97;101353.94;4148753;28;20177;-59
2023/08/12 03:52:10;;;;;;;;;;;;;;;22.43;62.67;101361.00;4148789;28;19925;-58
2023/08/12 03:54:12;;;;;;;;;;;;;;;22.42;62.62;101352.13;4148775;28;19932;-59
2023/08/12 03:56:16;;;;;;;;;;;;;;;22.41;62.78;101358.47;4149005;28;19932;-59
2023/08/12 03:58:17;;;;;;;;;;;;;;;22.42;62.98;101349.44;4149189;28;19925;-60
2023/08/12 04:00:19;;;;;;;;;;;;;;;22.41;62.63;101345.06;4148213;28;19952;-59
2023/08/12 04:02:20;;;;;;;;;;;;;;;22.40;62.80;101346.03;4148984;28;19968;-59
2023/08/12 04:04:22;;;;;;;;;;;;;;;22.41;63.04;101349.56;4149077;28;19971;-59
2023/08/12 04:06:23;;;;;;;;;;;;;;;22.40;62.95;101343.34;4148549;28;20024;-58
2023/08/12 04:08:25;;;;;;;;;;;;;;;22.40;62.89;101345.19;4147706;28;19933;-58
2023/08/12 04:10:26;;;;;;;;;;;;;;;22.39;62.92;101341.63;4084871;28;1829580;-59
2023/08/12 04:12:28;;;;;;;;;;;;;;;22.40;62.99;101335.31;4148454;28;19929;-59
2023/08/12 04:14:30;;;;;;;;;;;;;;;22.40;62.98;101332.63;4149315;28;19984;-59
2023/08/12 04:16:31;;;;;;;;;;;;;;;22.40;63.09;101331.78;4148313;28;19996;-59
2023/08/12 04:18:33;;;;;;;;;;;;;;;22.39;62.79;101330.91;4149609;28;19933;-59
2023/08/12 04:20:34;;;;;;;;;;;;;;;22.39;62.90;101327.38;4148375;28;19971;-59
2023/08/12 04:22:36;;;;;;;;;;;;;;;22.39;62.79;101322.88;4149535;28;19930;-60
2023/08/12 04:24:38;;;;;;;;;;;;;;;22.38;62.83;101326.50;4149538;28;20447;-58
2023/08/12 04:26:40;;;;;;;;;;;;;;;22.39;62.89;101328.22;4149478;28;19936;-59
2023/08/12 04:28:41;;;;;;;;;;;;;;;22.39;62.99;101319.34;4149121;28;19925;-59
2023/08/12 04:30:43;;;;;;;;;;;;;;;22.38;62.84;101326.50;4148810;28;20028;-58
2023/08/12 04:32:45;;;;;;;;;;;;;;;22.37;63.04;101319.44;4149472;28;19929;-59
2023/08/12 04:34:47;;;;;;;;;;;;;;;22.37;63.08;101311.41;4148991;28;19957;-59
2023/08/12 04:36:49;;;;;;;;;;;;;;;22.38;62.95;101317.59;4148990;28;19980;-59
2023/08/12 04:38:50;;;;;;;;;;;;;;;22.37;63.04;101308.72;4149091;28;19929;-59
2023/08/12 04:40:54;;;;;;;;;;;;;;;22.37;62.88;101316.75;4148476;28;20391;-59
2023/08/12 04:42:56;;;;;;;;;;;;;;;22.37;62.90;101316.75;4149061;28;19980;-59
2023/08/12 04:44:58;;;;;;;;;;;;;;;22.37;63.10;101313.22;4148444;28;20387;-59
2023/08/12 04:46:59;;;;;;;;;;;;;;;22.36;62.82;101315.06;4149146;28;19925;-59
2023/08/12 04:49:01;;;;;;;;;;;;;;;22.36;63.05;101314.19;4149450;28;19929;-58
2023/08/12 04:51:03;;;;;;;;;;;;;;;22.36;62.98;101319.53;4148056;28;20302;-59
2023/08/12 04:53:05;;;;;;;;;;;;;;;22.35;63.41;101329.41;4148829;28;19956;-58
2023/08/12 04:55:06;;;;;;;;;;;;;;;22.35;63.26;101326.72;4148802;28;20314;-59
2023/08/12 04:57:08;;;;;;;;;;;;;;;22.34;63.14;101333.91;4148828;28;20012;-59
2023/08/12 04:59:10;;;;;;;;;;;;;;;22.34;63.32;101330.38;4148929;28;19930;-59
2023/08/12 05:01:12;;;;;;;;;;;;;;;22.35;63.19;101326.72;4148146;28;19947;-59
2023/08/12 05:03:13;;;;;;;;;;;;;;;22.34;63.06;101333.06;4148940;28;20288;-59
2023/08/12 05:05:15;;;;;;;;;;;;;;;22.34;63.23;101319.66;4148372;28;19953;-58
2023/08/12 05:07:17;;;;;;;;;;;;;;;22.33;63.00;101324.19;4148872;28;20362;-59
2023/08/12 05:09:18;;;;;;;;;;;;;;;22.34;63.24;101327.69;4148813;28;20020;-58
2023/08/12 05:11:20;;;;;;;;;;;;;;;22.34;63.12;101325.03;4147768;28;20004;-59
2023/08/12 05:13:23;;;;;;;;;;;;;;;22.32;63.09;101327.81;4148551;28;19925;-59
2023/08/12 05:15:25;;;;;;;;;;;;;;;22.33;62.94;101332.22;4148564;28;20033;-59
2023/08/12 05:17:26;;;;;;;;;;;;;;;22.32;63.00;101327.81;4148544;28;19925;-58
2023/08/12 05:19:28;;;;;;;;;;;;;;;22.33;62.98;101326.00;4148375;28;20291;-59
2023/08/12 05:21:30;;;;;;;;;;;;;;;22.32;63.39;101332.31;4147982;28;20020;-58
2023/08/12 05:23:31;;;;;;;;;;;;;;;22.32;63.13;101335.88;4147253;28;19929;-59
2023/08/12 05:25:33;;;;;;;;;;;;;;;22.32;63.13;101338.53;4148519;28;20272;-58
2023/08/12 05:27:39;;;;;;;;;;;;;;;22.31;63.08;101336.00;4148352;28;19961;-57
2023/08/12 05:29:41;;;;;;;;;;;;;;;22.32;63.05;101340.34;4148778;28;20323;-59
2023/08/12 05:31:43;;;;;;;;;;;;;;;22.31;63.11;101338.66;4147768;28;19929;-59
2023/08/12 05:33:44;;;;;;;;;;;;;;;22.31;63.16;101336.00;4148113;28;19979;-59
2023/08/12 05:35:49;;;;;;;;;;;;;;;22.31;63.31;101339.50;4148477;28;19929;-58
2023/08/12 05:37:50;;;;;;;;;;;;;;;22.30;63.33;101345.84;4148648;28;20469;-58
2023/08/12 05:39:52;;;;;;;;;;;;;;;22.30;63.16;101347.69;4148443;28;19925;-58
2023/08/12 05:41:58;;;;;;;;;;;;;;;22.30;63.41;101334.28;4147844;28;19925;-59
2023/08/12 05:44:00;;;;;;;;;;;;;;;22.30;62.98;101328.91;4148223;28;20021;-58
2023/08/12 05:46:02;;;;;;;;;;;;;;;22.30;63.39;101329.75;4148192;28;19930;-59
2023/08/12 05:48:04;;;;;;;;;;;;;;;22.30;63.13;101323.56;4147770;28;19929;-58
2023/08/12 05:50:10;;;;;;;;;;;;;;;22.29;63.27;101338.75;4147628;28;19926;-59
2023/08/12 05:52:16;;;;;;;;;;;;;;;22.30;63.07;101345.84;4147963;28;20291;-59
2023/08/12 05:54:18;;;;;;;;;;;;;;;22.30;63.41;101350.34;4148194;28;20334;-59
2023/08/12 05:56:20;;;;;;;;;;;;;;;22.29;63.05;101346.81;4146737;28;19967;-59
2023/08/12 05:58:21;;;;;;;;;;;;;;;22.30;63.19;101348.50;4148241;28;19929;-59
2023/08/12 06:00:23;;;;;;;;;;;;;;;22.29;63.08;101348.63;4147637;28;20005;-59
2023/08/12 06:02:25;;;;;;;;;;;;;;;22.28;63.10;101350.44;4147651;28;19984;-59
2023/08/12 06:04:26;;;;;;;;;;;;;;;22.28;63.21;101352.28;4148016;28;20009;-58
2023/08/12 06:06:28;;;;;;;;;;;;;;;22.28;63.40;101345.09;4148169;28;20043;-59
2023/08/12 06:08:29;;;;;;;;;;;;;;;22.27;63.08;101351.44;4148127;28;20008;-59
2023/08/12 06:10:31;;;;;;;;;;;;;;;22.27;63.05;101346.09;4147647;28;20618;-58
2023/08/12 06:12:33;;;;;;;;;;;;;;;22.27;63.05;101350.56;4148051;28;19932;-59
2023/08/12 06:14:36;;;;;;;;;;;;;;;22.27;63.16;101348.75;4147978;28;19979;-59
2023/08/12 06:16:38;;;;;;;;;;;;;;;22.27;63.04;101346.09;4147508;28;19976;-59
2023/08/12 06:18:40;;;;;;;;;;;;;;;22.27;63.12;101343.41;4147965;28;20363;-58
2023/08/12 06:20:41;;;;;;;;;;;;;;;22.28;63.14;101349.59;4147263;28;20403;-59
2023/08/12 06:22:43;;;;;;;;;;;;;;;22.27;63.35;101339.84;4147787;28;19988;-58
2023/08/12 06:24:45;;;;;;;;;;;;;;;22.27;63.13;101339.84;4146680;28;19957;-59
2023/08/12 06:26:46;;;;;;;;;;;;;;;22.26;63.18;101339.00;4147961;28;20318;-58
2023/08/12 06:28:48;;;;;;;;;;;;;;;22.25;63.33;101329.25;4147922;28;19949;-58
2023/08/12 06:30:49;;;;;;;;;;;;;;;22.25;63.57;101337.31;4147190;28;19925;-59
2023/08/12 06:32:51;;;;;;;;;;;;;;;22.26;63.50;101339.00;4147793;28;19926;-58
2023/08/12 06:34:52;;;;;;;;;;;;;;;22.25;63.14;101339.09;4147535;28;19939;-59
2023/08/12 06:36:54;;;;;;;;;;;;;;;22.25;63.34;101345.34;4147627;28;19968;-59
2023/08/12 06:38:55;;;;;;;;;;;;;;;22.25;63.37;101336.44;4148003;28;19933;-58
2023/08/12 06:40:57;;;;;;;;;;;;;;;22.25;63.20;101339.09;4147129;28;20067;-59
2023/08/12 06:42:58;;;;;;;;;;;;;;;22.25;63.18;101339.09;4148118;28;19926;-59
2023/08/12 06:45:00;;;;;;;;;;;;;;;22.24;63.33;101340.09;4147812;28;20018;-59
2023/08/12 06:47:02;;;;;;;;;;;;;;;22.25;63.42;101347.16;4147452;28;19930;-59
2023/08/12 06:49:08;;;;;;;;;;;;;;;22.24;63.26;101346.31;4147833;28;19932;-58
2023/08/12 06:51:12;;;;;;;;;;;;;;;22.26;63.17;101351.53;4146920;28;20297;-58
2023/08/12 06:53:14;;;;;;;;;;;;;;;22.26;63.29;101343.50;4147695;28;19933;-59
2023/08/12 06:55:15;;;;;;;;;;;;;;;22.25;63.23;101349.81;4147811;28;19925;-59
2023/08/12 06:57:17;;;;;;;;;;;;;;;22.25;63.33;101334.63;4147714;28;19925;-59
2023/08/12 06:59:19;;;;;;;;;;;;;;;22.24;63.40;101340.94;4147761;28;19952;-59
2023/08/12 07:01:20;;;;;;;;;;;;;;;22.25;63.20;101339.09;4146690;28;20024;-58
2023/08/12 07:03:22;;;;;;;;;;;;;;;22.25;63.29;101358.72;4147767;28;19932;-59
2023/08/12 07:05:23;;;;;;;;;;;;;;;22.25;63.30;101363.22;4147692;28;19933;-58
2023/08/12 07:07:25;;;;;;;;;;;;;;;22.24;63.53;101366.91;4146553;28;20012;-59
2023/08/12 07:09:26;;;;;;;;;;;;;;;22.23;63.41;101365.19;4149273;28;19926;-58
2023/08/12 07:11:28;;;;;;;;;;;;;;;22.21;63.72;101370.63;4149701;28;19925;-58
2023/08/12 07:13:30;;;;;;;;;;;;;;;22.21;63.43;101362.59;4150427;28;19925;-59
2023/08/12 07:15:36;;;;;;;;;;;;;;;22.21;63.41;101369.78;4149931;28;19925;-59
2023/08/12 07:17:38;;;;;;;;;;;;;;;22.20;63.34;101370.75;4150443;28;19925;-59
2023/08/12 07:19:39;;;;;;;;;;;;;;;22.21;63.33;101380.50;4150614;28;19925;-59
2023/08/12 07:21:41;;;;;;;;;;;;;;;22.20;63.46;101381.47;4149796;28;20370;-59
2023/08/12 07:23:43;;;;;;;;;;;;;;;22.20;63.62;101390.38;4150398;28;20422;-59
2023/08/12 07:25:55;;;;;;;;;;;;;;;22.20;63.83;101398.41;4150227;28;19926;-59
2023/08/12 07:27:57;;;;;;;;;;;;;;;22.18;63.45;101397.66;4150355;28;20329;-59
2023/08/12 07:29:59;;;;;;;;;;;;;;;22.18;63.50;101406.53;4150217;28;19933;-59
2023/08/12 07:32:00;;;;;;;;;;;;;;;22.17;63.49;101407.50;4149626;28;19933;-59
2023/08/12 07:34:02;;;;;;;;;;;;;;;22.17;63.84;101412.88;4150179;28;20022;-58
2023/08/12 07:36:03;;;;;;;;;;;;;;;22.17;63.56;101423.59;4150165;28;19941;-59
2023/08/12 07:38:06;;;;;;;;;;;;;;;22.17;63.53;101425.41;4150124;28;19926;-59
2023/08/12 07:40:08;;;;;;;;;;;;;;;22.18;63.59;101419.09;4150037;28;20317;-59
2023/08/12 07:42:10;;;;;;;;;;;;;;;22.17;63.75;101420.91;4149556;28;19926;-60
2023/08/12 07:44:12;;;;;;;;;;;;;;;22.16;63.51;101421.91;4149811;28;20394;-60
2023/08/12 07:46:13;;;;;;;;;;;;;;;22.16;63.53;101423.72;4150147;28;20333;-59
2023/08/12 07:48:15;;;;;;;;;;;;;;;22.17;63.78;101420.06;4149893;28;19926;-59
2023/08/12 07:50:17;;;;;;;;;;;;;;;22.16;63.60;101421.03;4150258;28;19929;-59
2023/08/12 07:52:18;;;;;;;;;;;;;;;22.16;63.59;101427.25;4149361;28;19960;-59
2023/08/12 07:54:20;;;;;;;;;;;;;;;22.15;63.53;101425.53;4149833;28;20397;-59
2023/08/12 07:56:21;;;;;;;;;;;;;;;22.16;63.82;101424.59;4149940;28;19930;-60
2023/08/12 07:58:23;;;;;;;;;;;;;;;22.17;63.63;101422.75;4149430;28;19925;-60
2023/08/12 08:00:24;;;;;;;;;;;;;;;22.17;63.42;101426.25;4149898;28;19977;-60
2023/08/12 08:02:26;;;;;;;;;;;;;;;22.17;63.46;101426.25;4149269;28;19926;-59
2023/08/12 08:04:28;;;;;;;;;;;;;;;22.18;63.51;101437.84;4149699;28;20311;-60
2023/08/12 08:06:29;;;;;;;;;;;;;;;22.16;63.62;101435.31;4148354;28;19960;-59
2023/08/12 08:08:31;;;;;;;;;;;;;;;22.17;63.46;101438.81;4149719;28;19925;-60
2023/08/12 08:10:32;;;;;;;;;;;;;;;22.17;63.64;101442.34;4149492;28;20330;-60
2023/08/12 08:12:34;;;;;;;;;;;;;;;22.17;63.25;101442.34;4149058;28;20000;-60
2023/08/12 08:14:36;;;;;;;;;;;;;;;22.17;63.19;101439.66;4149697;28;19926;-59
2023/08/12 08:16:40;;;;;;;;;;;;;;;22.17;63.29;101433.47;4149630;28;20326;-60
2023/08/12 08:18:42;;;;;;;;;;;;;;;22.17;63.31;101428.94;4149474;28;19925;-60
2023/08/12 08:20:43;;;;;;;;;;;;;;;22.19;63.27;101434.22;4148157;28;20388;-60
2023/08/12 08:22:47;;;;;;;;;;;;;;;22.19;63.14;101431.53;4149495;28;20036;-60
2023/08/12 08:24:48;;;;;;;;;;;;;;;22.20;63.09;101429.69;4149636;28;20388;-60
2023/08/12 08:26:50;;;;;;;;;;;;;;;22.20;63.36;101433.25;4149583;28;19926;-59
2023/08/12 08:28:51;;;;;;;;;;;;;;;22.21;63.21;101426.06;4149144;28;19932;-60
2023/08/12 08:30:53;;;;;;;;;;;;;;;22.20;63.15;101416.31;4147660;28;20323;-60
2023/08/12 08:32:55;;;;;;;;;;;;;;;22.20;63.11;101422.53;4149257;28;19980;-60
2023/08/12 08:34:56;;;;;;;;;;;;;;;22.21;63.09;101426.91;4149414;28;20383;-60
2023/08/12 08:36:58;;;;;;;;;;;;;;;22.21;62.98;101420.69;4149109;28;19925;-60
2023/08/12 08:39:00;;;;;;;;;;;;;;;22.20;63.22;101430.56;4149329;28;19925;-60
2023/08/12 08:41:02;;;;;;;;;;;;;;;22.21;62.88;101436.78;4148674;28;20425;-60
2023/08/12 08:43:07;;;;;;;;;;;;;;;22.24;63.11;101439.25;4148800;28;19926;-60
2023/08/12 08:45:12;;;;;;;;;;;;;;;22.24;62.88;101437.41;4149237;28;19926;-60
2023/08/12 08:47:16;;;;;;;;;;;;;;;22.26;63.20;101438.16;4149214;28;20012;-60
2023/08/12 08:49:18;;;;;;;;;;;;;;;22.27;62.99;101442.56;4149549;28;19960;-60
2023/08/12 08:51:20;;;;;;;;;;;;;;;22.28;62.73;101440.72;4148459;28;19956;-60
2023/08/12 08:53:21;;;;;;;;;;;;;;;22.29;63.03;101445.94;4148920;28;19925;-59
2023/08/12 08:55:23;;;;;;;;;;;;;;;22.30;62.97;101439.63;4148858;28;20016;-60
2023/08/12 08:57:24;;;;;;;;;;;;;;;22.31;62.73;101437.81;4148588;28;19932;-60
2023/08/12 08:59:41;;;;;;;;;;;;;;;22.31;62.74;101435.13;4148915;28;19929;-60
2023/08/12 09:01:46;;;;;;;;;;;;;;;22.31;62.83;101437.81;4148212;28;19972;-60
2023/08/12 09:03:50;;;;;;;;;;;;;;;22.30;62.83;101444.97;4149009;28;19953;-60
2023/08/12 09:05:55;;;;;;;;;;;;;;;22.30;62.85;101436.09;4148940;28;19949;-59
2023/08/12 09:07:58;;;;;;;;;;;;;;;22.30;62.39;101436.09;4148665;28;19973;-60
2023/08/12 09:10:01;;;;;;;;;;;;;;;22.32;62.64;101439.50;4148831;28;19926;-60
2023/08/12 09:12:03;;;;;;;;;;;;;;;22.32;62.52;101445.75;4147667;28;19930;-59
2023/08/12 09:14:05;;;;;;;;;;;;;;;22.33;62.55;101450.13;4148693;28;20036;-60
2023/08/12 09:16:07;;;;;;;;;;;;;;;22.33;62.74;101447.44;4148679;28;20007;-60
2023/08/12 09:18:09;;;;;;;;;;;;;;;22.35;62.46;101441.97;4148845;28;19925;-60
2023/08/12 09:20:13;;;;;;;;;;;;;;;22.36;62.53;101445.50;4148831;28;19948;-60
2023/08/12 09:22:14;;;;;;;;;;;;;;;22.38;62.65;101451.59;4147815;28;19932;-60
2023/08/12 09:24:16;;;;;;;;;;;;;;;22.38;62.29;101439.06;4148337;28;19967;-60
2023/08/12 09:26:19;;;;;;;;;;;;;;;22.39;62.30;101438.13;4148342;28;19932;-59
2023/08/12 09:28:20;;;;;;;;;;;;;;;22.41;62.27;101441.53;4147503;28;19925;-60
2023/08/12 09:30:22;;;;;;;;;;;;;;;22.41;62.23;101443.38;4148199;28;19932;-60
2023/08/12 09:32:24;;;;;;;;;;;;;;;22.42;62.26;101439.72;4147823;28;19930;-60
2023/08/12 09:34:26;;;;;;;;;;;;;;;22.42;62.21;101442.38;4148295;28;20013;-60
2023/08/12 09:36:29;;;;;;;;;;;;;;;22.44;62.40;101443.13;4148436;28;19926;-60
2023/08/12 09:38:31;;;;;;;;;;;;;;;22.44;62.53;101454.72;4148385;28;20008;-59
2023/08/12 09:40:33;;;;;;;;;;;;;;;22.46;62.14;101447.41;4148106;28;20024;-60
2023/08/12 09:42:35;;;;;;;;;;;;;;;22.48;62.50;101450.00;4147721;28;19926;-60
2023/08/12 09:44:37;;;;;;;;;;;;;;;22.48;62.04;101453.53;4148212;28;20024;-60
2023/08/12 09:46:38;;;;;;;;;;;;;;;22.49;62.24;101459.72;4148314;28;19941;-60
2023/08/12 09:48:40;;;;;;;;;;;;;;;22.48;62.19;101458.88;4147110;28;20008;-60
2023/08/12 09:50:42;;;;;;;;;;;;;;;22.48;62.21;101460.72;4148197;28;19930;-60
2023/08/12 09:52:43;;;;;;;;;;;;;;;22.46;62.43;101462.66;4147411;28;19929;-59
2023/08/12 09:54:45;;;;;;;;;;;;;;;22.47;62.51;101462.53;4147917;28;20398;-59
2023/08/12 09:56:53;;;;;;;;;;;;;;;22.47;62.25;101470.56;4147998;28;19925;-58
2023/08/12 09:58:55;;;;;;;;;;;;;;;22.47;62.12;101461.69;4148111;28;19925;-59
2023/08/12 10:00:57;;;;;;;;;;;;;;;22.45;62.46;101467.13;4148014;28;19980;-59
2023/08/12 10:03:00;;;;;;;;;;;;;;;22.45;62.20;101469.81;4147867;28;19926;-59
2023/08/12 10:05:03;;;;;;;;;;;;;;;22.44;62.28;101468.13;4147996;28;19972;-59
2023/08/12 10:07:05;;;;;;;;;;;;;;;22.43;62.66;101468.22;4148104;28;19957;-59
2023/08/12 10:09:08;;;;;;;;;;;;;;;22.42;62.41;101470.06;4147779;28;19964;-58
2023/08/12 10:11:10;;;;;;;;;;;;;;;22.41;62.32;101468.34;4147329;28;19925;-58
2023/08/12 10:13:14;;;;;;;;;;;;;;;22.43;62.23;101461.06;4147878;28;20001;-58
2023/08/12 10:15:16;;;;;;;;;;;;;;;22.44;62.31;101454.72;4147886;28;19932;-59
2023/08/12 10:17:18;;;;;;;;;;;;;;;22.45;62.27;101458.25;4148220;28;19956;-60
2023/08/12 10:19:43;;;;;;;;;;;;;;;22.47;62.16;101454.50;4146972;28;19926;-59
2023/08/12 10:21:45;;;;;;;;;;;;;;;22.50;62.47;101458.75;4147416;28;20355;-59
2023/08/12 10:23:46;;;;;;;;;;;;;;;22.52;61.99;101455.94;4147600;28;19929;-59
2023/08/12 10:25:49;;;;;;;;;;;;;;;22.53;62.23;101458.53;4147946;28;20276;-59
2023/08/12 10:27:50;;;;;;;;;;;;;;;22.56;62.22;101465.50;4147879;28;19932;-59